Time;durP1;ratioP1;P1;durP2;ratioP2;P2;SDS_P1;SDS_P2;PMS_P1;PMS_P2;Temp;Humidity;BMP_temperature;BMP_pressure;BME280_temperature;BME280_humidity;BME280_pressure;Samples;Min_cycle;Max_cycle;Signal;HPM_P1;HPM_P2
2023/07/14 00:01:02;;;;;;;0.10;0.10;;;;;;;;;;5066850;28;20569;-74
2023/07/14 00:03:30;;;;;;;0.10;0.10;;;;;;;;;;5082661;28;20291;-74
2023/07/14 00:05:56;;;;;;;0.00;0.00;;;;;;;;;;5066915;28;20300;-74
2023/07/14 00:08:22;;;;;;;0.10;0.10;;;;;;;;;;5082894;28;20205;-74
2023/07/14 00:10:49;;;;;;;0.10;0.10;;;;;;;;;;5064747;28;20302;-74
2023/07/14 00:13:15;;;;;;;0.00;0.00;;;;;;;;;;5084749;28;20258;-74
2023/07/14 00:15:43;;;;;;;0.10;0.10;;;;;;;;;;5062737;28;20282;-74
2023/07/14 00:18:16;;;;;;;0.10;0.10;;;;;;;;;;5086345;28;20278;-74
2023/07/14 00:20:43;;;;;;;0.10;0.10;;;;;;;;;;5062782;28;20242;-74
2023/07/14 00:23:12;;;;;;;0.05;0.05;;;;;;;;;;5085988;28;20242;-74
2023/07/14 00:25:39;;;;;;;0.03;0.03;;;;;;;;;;5061838;28;20242;-74
2023/07/14 00:28:11;;;;;;;0.10;0.10;;;;;;;;;;5087291;28;20227;-74
2023/07/14 00:30:37;;;;;;;0.10;0.10;;;;;;;;;;5061602;28;20481;-74
2023/07/14 00:33:10;;;;;;;1.17;0.63;;;;;;;;;;5087299;28;20243;-74
2023/07/14 00:35:36;;;;;;;0.10;0.10;;;;;;;;;;5061155;28;20304;-74
2023/07/14 00:38:04;;;;;;;0.08;0.08;;;;;;;;;;5088029;28;20266;-74
2023/07/14 00:40:36;;;;;;;0.10;0.10;;;;;;;;;;5060933;28;20310;-74
2023/07/14 00:43:02;;;;;;;0.10;0.10;;;;;;;;;;5091881;28;20233;-74
2023/07/14 00:45:30;;;;;;;0.00;0.00;;;;;;;;;;5063249;28;20288;-74
2023/07/14 00:48:03;;;;;;;0.08;0.08;;;;;;;;;;5093638;28;20194;-74
2023/07/14 00:50:32;;;;;;;0.10;0.10;;;;;;;;;;5063258;28;20249;-74
2023/07/14 00:53:00;;;;;;;0.10;0.10;;;;;;;;;;5092894;28;20297;-74
2023/07/14 00:55:38;;;;;;;0.10;0.10;;;;;;;;;;5062558;28;20727;-74
2023/07/14 00:58:10;;;;;;;0.10;0.10;;;;;;;;;;5091267;28;20509;-74
2023/07/14 01:00:37;;;;;;;0.03;0.03;;;;;;;;;;5065066;28;20261;-74
2023/07/14 01:03:05;;;;;;;0.10;0.10;;;;;;;;;;5091218;28;20201;-73
2023/07/14 01:05:32;;;;;;;0.05;0.05;;;;;;;;;;5063347;28;20237;-73
2023/07/14 01:07:58;;;;;;;0.10;0.10;;;;;;;;;;5092891;28;20205;-74
2023/07/14 01:10:27;;;;;;;0.10;0.10;;;;;;;;;;5061655;28;20460;-74
2023/07/14 01:12:58;;;;;;;1.85;1.85;;;;;;;;;;5093847;28;20282;-74
2023/07/14 01:15:24;;;;;;;0.95;0.95;;;;;;;;;;5061609;28;20499;-74
2023/07/14 01:17:51;;;;;;;0.10;0.10;;;;;;;;;;5094475;28;20315;-74
2023/07/14 01:20:18;;;;;;;0.00;0.00;;;;;;;;;;5059730;28;20268;-73
2023/07/14 01:22:48;;;;;;;0.05;0.05;;;;;;;;;;5095804;28;20195;-74
2023/07/14 01:25:20;;;;;;;0.00;0.00;;;;;;;;;;5058476;28;20452;-74
2023/07/14 01:27:48;;;;;;;0.10;0.10;;;;;;;;;;5095342;28;20559;-73
2023/07/14 01:30:15;;;;;;;0.00;0.00;;;;;;;;;;5058722;28;20237;-74
2023/07/14 01:32:43;;;;;;;0.10;0.10;;;;;;;;;;5096333;28;20193;-73
2023/07/14 01:35:10;;;;;;;0.10;0.10;;;;;;;;;;5056941;28;20206;-74
2023/07/14 01:37:37;;;;;;;0.08;0.08;;;;;;;;;;5098112;28;20206;-74
2023/07/14 01:40:05;;;;;;;0.00;0.00;;;;;;;;;;5066636;28;20462;-73
2023/07/14 01:42:32;;;;;;;0.47;0.47;;;;;;;;;;5088527;28;20313;-74
2023/07/14 01:45:00;;;;;;;0.10;0.10;;;;;;;;;;5066606;28;20273;-74
2023/07/14 01:47:28;;;;;;;0.10;0.10;;;;;;;;;;5088450;28;20307;-74
2023/07/14 01:49:54;;;;;;;0.00;0.00;;;;;;;;;;5066370;28;20216;-74
2023/07/14 01:52:22;;;;;;;0.00;0.00;;;;;;;;;;5088242;28;20263;-74
2023/07/14 01:54:50;;;;;;;0.05;0.05;;;;;;;;;;5066290;28;20237;-74
2023/07/14 01:57:18;;;;;;;0.05;0.05;;;;;;;;;;5088218;28;20319;-74
2023/07/14 01:59:45;;;;;;;0.10;0.10;;;;;;;;;;5066293;28;20206;-74
2023/07/14 02:02:16;;;;;;;0.00;0.00;;;;;;;;;;5088142;28;20480;-74
2023/07/14 02:04:45;;;;;;;0.10;0.10;;;;;;;;;;5066085;28;20212;-74
2023/07/14 02:07:13;;;;;;;0.10;0.10;;;;;;;;;;5088121;28;20248;-74
2023/07/14 02:09:39;;;;;;;0.00;0.00;;;;;;;;;;5065941;28;20205;-74
2023/07/14 02:12:07;;;;;;;0.10;0.10;;;;;;;;;;5087425;28;20287;-74
2023/07/14 02:14:37;;;;;;;0.10;0.10;;;;;;;;;;5065950;28;20265;-74
2023/07/14 02:17:06;;;;;;;0.10;0.10;;;;;;;;;;5086706;28;20308;-74
2023/07/14 02:19:34;;;;;;;0.10;0.10;;;;;;;;;;5065971;28;20260;-74
2023/07/14 02:22:02;;;;;;;0.10;0.10;;;;;;;;;;5085881;28;20308;-74
2023/07/14 02:24:30;;;;;;;0.00;0.00;;;;;;;;;;5067194;28;20202;-74
2023/07/14 02:26:59;;;;;;;0.10;0.10;;;;;;;;;;5084501;28;20244;-73
2023/07/14 02:29:26;;;;;;;2.20;2.10;;;;;;;;;;5067469;28;20205;-74
2023/07/14 02:31:55;;;;;;;0.00;0.00;;;;;;;;;;5083344;28;20336;-74
2023/07/14 02:34:22;;;;;;;0.10;0.10;;;;;;;;;;5068647;28;20259;-74
2023/07/14 02:36:57;;;;;;;0.00;0.00;;;;;;;;;;5082236;28;20592;-73
2023/07/14 02:39:24;;;;;;;0.00;0.00;;;;;;;;;;5068169;28;20209;-74
2023/07/14 02:41:53;;;;;;;0.00;0.00;;;;;;;;;;5082787;28;20247;-74
2023/07/14 02:44:20;;;;;;;0.10;0.10;;;;;;;;;;5068936;28;20246;-73
2023/07/14 02:46:48;;;;;;;0.10;0.10;;;;;;;;;;5081501;28;20241;-74
2023/07/14 02:49:15;;;;;;;0.05;0.05;;;;;;;;;;5069927;28;20231;-74
2023/07/14 02:51:41;;;;;;;0.10;0.10;;;;;;;;;;5079933;28;20302;-74
2023/07/14 02:54:09;;;;;;;0.03;0.03;;;;;;;;;;5071445;28;20226;-74
2023/07/14 02:56:36;;;;;;;0.10;0.10;;;;;;;;;;5078500;28;20244;-74
2023/07/14 02:59:03;;;;;;;0.10;0.10;;;;;;;;;;5072997;28;20210;-74
2023/07/14 03:01:32;;;;;;;0.10;0.10;;;;;;;;;;5076592;28;20306;-74
2023/07/14 03:03:59;;;;;;;0.00;0.00;;;;;;;;;;5073468;28;20486;-74
2023/07/14 03:06:26;;;;;;;0.03;0.03;;;;;;;;;;5075692;28;20256;-73
2023/07/14 03:08:52;;;;;;;0.10;0.10;;;;;;;;;;5075409;28;20206;-74
2023/07/14 03:11:20;;;;;;;0.10;0.10;;;;;;;;;;5073636;28;20488;-74
2023/07/14 03:13:47;;;;;;;0.10;0.10;;;;;;;;;;5077523;28;20261;-73
2023/07/14 03:16:13;;;;;;;0.10;0.10;;;;;;;;;;5072053;28;20477;-74
2023/07/14 03:18:40;;;;;;;0.05;0.05;;;;;;;;;;5078982;28;20466;-73
2023/07/14 03:21:07;;;;;;;0.10;0.10;;;;;;;;;;5069911;28;20315;-74
2023/07/14 03:23:33;;;;;;;0.00;0.00;;;;;;;;;;5080578;28;20209;-74
2023/07/14 03:26:01;;;;;;;0.10;0.10;;;;;;;;;;5068383;28;20259;-74
2023/07/14 03:28:29;;;;;;;0.10;0.10;;;;;;;;;;5082431;28;20425;-74
2023/07/14 03:30:55;;;;;;;1.08;1.08;;;;;;;;;;5067043;28;20238;-74
2023/07/14 03:33:21;;;;;;;0.10;0.10;;;;;;;;;;5083327;28;20271;-73
2023/07/14 03:35:48;;;;;;;0.10;0.10;;;;;;;;;;5064989;28;20262;-74
2023/07/14 03:38:14;;;;;;;0.08;0.08;;;;;;;;;;5085337;28;20208;-74
2023/07/14 03:40:41;;;;;;;0.10;0.10;;;;;;;;;;5062917;28;20263;-74
2023/07/14 03:43:07;;;;;;;0.10;0.10;;;;;;;;;;5087205;28;20381;-74
2023/07/14 03:45:36;;;;;;;0.10;0.10;;;;;;;;;;5061024;28;20280;-74
2023/07/14 03:48:03;;;;;;;0.10;0.10;;;;;;;;;;5088950;28;20205;-74
2023/07/14 03:50:29;;;;;;;0.10;0.10;;;;;;;;;;5059829;28;20594;-74
2023/07/14 03:52:56;;;;;;;0.20;0.20;;;;;;;;;;5090357;28;20265;-73
2023/07/14 03:55:22;;;;;;;0.10;0.10;;;;;;;;;;5057699;28;20264;-73
2023/07/14 03:57:48;;;;;;;0.05;0.05;;;;;;;;;;5092232;28;20266;-74
2023/07/14 04:00:17;;;;;;;0.10;0.10;;;;;;;;;;5054895;28;20231;-74
2023/07/14 04:02:45;;;;;;;0.10;0.10;;;;;;;;;;5093144;28;20220;-75
2023/07/14 04:05:12;;;;;;;0.05;0.05;;;;;;;;;;5063634;28;20271;-73
2023/07/14 04:07:39;;;;;;;0.10;0.10;;;;;;;;;;5085796;28;20283;-73
2023/07/14 04:10:06;;;;;;;0.10;0.10;;;;;;;;;;5063517;28;20280;-74
2023/07/14 04:12:33;;;;;;;0.10;0.10;;;;;;;;;;5052235;28;20535;-73
2023/07/14 04:14:59;;;;;;;0.10;0.10;;;;;;;;;;5062692;28;20238;-74
2023/07/14 04:17:26;;;;;;;0.10;0.10;;;;;;;;;;5068950;28;20243;-74
2023/07/14 04:19:54;;;;;;;0.10;0.10;;;;;;;;;;5063605;28;20207;-73
2023/07/14 04:22:20;;;;;;;0.00;0.00;;;;;;;;;;5085568;28;20259;-73
2023/07/14 04:24:47;;;;;;;0.10;0.10;;;;;;;;;;5063485;28;20232;-73
2023/07/14 04:27:13;;;;;;;0.03;0.03;;;;;;;;;;5085591;28;20320;-74
2023/07/14 04:29:40;;;;;;;0.10;0.10;;;;;;;;;;5063314;28;20238;-74
2023/07/14 04:32:07;;;;;;;0.05;0.05;;;;;;;;;;5085141;28;20259;-73
2023/07/14 04:34:34;;;;;;;0.10;0.10;;;;;;;;;;5063615;28;20232;-73
2023/07/14 04:37:02;;;;;;;0.03;0.03;;;;;;;;;;5083437;28;20311;-73
2023/07/14 04:39:28;;;;;;;0.10;0.10;;;;;;;;;;5064873;28;20381;-74
2023/07/14 04:41:55;;;;;;;0.10;0.10;;;;;;;;;;5081952;28;20294;-74
2023/07/14 04:44:21;;;;;;;0.10;0.10;;;;;;;;;;5066728;28;20222;-73
2023/07/14 04:46:48;;;;;;;0.10;0.10;;;;;;;;;;5080063;28;20310;-74
2023/07/14 04:49:15;;;;;;;0.10;0.10;;;;;;;;;;5068445;28;20237;-74
2023/07/14 04:51:42;;;;;;;0.10;0.10;;;;;;;;;;5078472;28;20283;-74
2023/07/14 04:54:10;;;;;;;0.00;0.00;;;;;;;;;;5069940;28;20234;-73
2023/07/14 04:56:38;;;;;;;0.10;0.10;;;;;;;;;;5077009;28;20245;-74
2023/07/14 04:59:05;;;;;;;0.10;0.10;;;;;;;;;;5070980;28;20209;-74
2023/07/14 05:01:31;;;;;;;0.10;0.10;;;;;;;;;;5075341;28;20246;-74
2023/07/14 05:03:58;;;;;;;0.00;0.00;;;;;;;;;;5072875;28;20247;-74
2023/07/14 05:06:25;;;;;;;0.00;0.00;;;;;;;;;;5073535;28;20306;-73
2023/07/14 05:08:51;;;;;;;0.10;0.10;;;;;;;;;;5074424;28;20209;-74
2023/07/14 05:11:19;;;;;;;0.10;0.10;;;;;;;;;;5071566;28;20264;-73
2023/07/14 05:13:46;;;;;;;0.08;0.08;;;;;;;;;;5076236;28;20376;-73
2023/07/14 05:16:12;;;;;;;0.10;0.10;;;;;;;;;;5070159;28;20247;-74
2023/07/14 05:18:38;;;;;;;0.10;0.10;;;;;;;;;;5077555;28;20281;-73
2023/07/14 05:21:05;;;;;;;0.10;0.10;;;;;;;;;;5068081;28;20314;-74
2023/07/14 05:23:32;;;;;;;0.10;0.10;;;;;;;;;;5079585;28;20206;-74
2023/07/14 05:25:58;;;;;;;0.10;0.10;;;;;;;;;;5067024;28;20344;-73
2023/07/14 05:28:26;;;;;;;0.05;0.05;;;;;;;;;;5085451;28;20239;-73
2023/07/14 05:30:52;;;;;;;0.03;0.03;;;;;;;;;;5068593;28;20259;-74
2023/07/14 05:33:19;;;;;;;0.08;0.08;;;;;;;;;;5086902;28;20236;-74
2023/07/14 05:35:45;;;;;;;0.10;0.10;;;;;;;;;;5066368;28;20257;-73
2023/07/14 05:38:12;;;;;;;0.10;0.10;;;;;;;;;;5088400;28;20207;-73
2023/07/14 05:40:38;;;;;;;0.05;0.05;;;;;;;;;;5064191;28;20640;-74
2023/07/14 05:43:05;;;;;;;0.10;0.10;;;;;;;;;;5090130;28;20373;-74
2023/07/14 05:45:33;;;;;;;0.10;0.10;;;;;;;;;;5062834;28;20667;-74
2023/07/14 05:47:59;;;;;;;0.10;0.10;;;;;;;;;;5091529;28;20242;-74
2023/07/14 05:50:25;;;;;;;0.00;0.00;;;;;;;;;;5061001;28;20230;-73
2023/07/14 05:52:52;;;;;;;0.00;0.00;;;;;;;;;;5093670;28;20195;-74
2023/07/14 05:55:18;;;;;;;0.10;0.10;;;;;;;;;;5058933;28;20296;-74
2023/07/14 05:57:44;;;;;;;0.00;0.00;;;;;;;;;;5095206;28;20259;-74
2023/07/14 06:00:16;;;;;;;0.00;0.00;;;;;;;;;;5057437;28;20258;-74
2023/07/14 06:02:45;;;;;;;0.00;0.00;;;;;;;;;;5096551;28;20489;-74
2023/07/14 06:05:12;;;;;;;0.10;0.10;;;;;;;;;;5056923;28;20238;-74
2023/07/14 06:07:40;;;;;;;0.05;0.05;;;;;;;;;;5096945;28;20194;-74
2023/07/14 06:10:06;;;;;;;0.10;0.10;;;;;;;;;;5064459;28;20233;-74
2023/07/14 06:12:33;;;;;;;0.00;0.00;;;;;;;;;;5096693;28;20261;-74
2023/07/14 06:14:59;;;;;;;0.10;0.10;;;;;;;;;;5065907;28;20590;-74
2023/07/14 06:17:26;;;;;;;0.05;0.05;;;;;;;;;;5087829;28;20241;-74
2023/07/14 06:19:54;;;;;;;0.10;0.10;;;;;;;;;;5065955;28;20323;-74
2023/07/14 06:22:20;;;;;;;0.10;0.10;;;;;;;;;;5087809;28;20310;-74
2023/07/14 06:24:48;;;;;;;0.05;0.05;;;;;;;;;;5065823;28;20458;-73
2023/07/14 06:27:14;;;;;;;0.10;0.10;;;;;;;;;;5087694;28;20291;-74
2023/07/14 06:29:41;;;;;;;0.00;0.00;;;;;;;;;;5065767;28;20442;-74
2023/07/14 06:32:08;;;;;;;0.00;0.00;;;;;;;;;;5087497;28;20282;-74
2023/07/14 06:34:34;;;;;;;0.10;0.10;;;;;;;;;;5065430;28;20297;-74
2023/07/14 06:37:02;;;;;;;0.10;0.10;;;;;;;;;;5085349;28;20303;-74
2023/07/14 06:39:28;;;;;;;0.10;0.10;;;;;;;;;;5066219;28;20396;-74
2023/07/14 06:41:55;;;;;;;0.10;0.10;;;;;;;;;;5083855;28;20483;-74
2023/07/14 06:44:21;;;;;;;0.10;0.10;;;;;;;;;;5068691;28;20451;-74
2023/07/14 06:46:47;;;;;;;0.00;0.00;;;;;;;;;;5081173;28;20239;-74
2023/07/14 06:49:14;;;;;;;0.00;0.00;;;;;;;;;;5071294;28;20213;-74
2023/07/14 06:51:40;;;;;;;0.10;0.10;;;;;;;;;;5079740;28;20313;-79
2023/07/14 06:54:08;;;;;;;0.03;0.03;;;;;;;;;;5072427;28;20214;-79
2023/07/14 06:56:34;;;;;;;0.05;0.05;;;;;;;;;;5078260;28;20333;-82
2023/07/14 06:59:02;;;;;;;0.00;0.00;;;;;;;;;;5073817;28;20493;-79
2023/07/14 07:01:28;;;;;;;0.00;0.00;;;;;;;;;;5076189;28;20242;-83
2023/07/14 07:03:54;;;;;;;0.00;0.00;;;;;;;;;;5075587;28;20207;-76
2023/07/14 07:06:21;;;;;;;0.10;0.10;;;;;;;;;;5074484;28;20241;-75
2023/07/14 07:08:47;;;;;;;0.10;0.10;;;;;;;;;;5077046;28;20205;-78
2023/07/14 07:11:15;;;;;;;0.10;0.10;;;;;;;;;;5072499;28;20314;-76
2023/07/14 07:13:41;;;;;;;0.10;0.10;;;;;;;;;;5079072;28;20394;-75
2023/07/14 07:16:08;;;;;;;0.00;0.00;;;;;;;;;;5070403;28;20285;-75
2023/07/14 07:18:34;;;;;;;0.10;0.10;;;;;;;;;;5080575;28;20568;-75
2023/07/14 07:21:01;;;;;;;0.10;0.10;;;;;;;;;;5069123;28;20623;-78
2023/07/14 07:23:28;;;;;;;0.00;0.00;;;;;;;;;;5083872;28;20245;-77
2023/07/14 07:25:55;;;;;;;0.25;0.25;;;;;;;;;;5067269;28;20258;-78
2023/07/14 07:28:23;;;;;;;0.00;0.00;;;;;;;;;;5083663;28;20279;-78
2023/07/14 07:30:50;;;;;;;0.00;0.00;;;;;;;;;;5065560;28;20242;-76
2023/07/14 07:33:16;;;;;;;0.05;0.05;;;;;;;;;;5085769;28;20193;-76
2023/07/14 07:35:43;;;;;;;0.10;0.10;;;;;;;;;;5063535;28;20460;-76
2023/07/14 07:38:10;;;;;;;0.10;0.10;;;;;;;;;;5087393;28;20294;-69
2023/07/14 07:40:37;;;;;;;0.00;0.00;;;;;;;;;;5062194;28;20246;-69
2023/07/14 07:43:03;;;;;;;0.00;0.00;;;;;;;;;;5088172;28;20221;-71
2023/07/14 07:45:31;;;;;;;0.10;0.10;;;;;;;;;;5059855;28;20312;-70
2023/07/14 07:47:57;;;;;;;0.10;0.10;;;;;;;;;;5090208;28;20206;-68
2023/07/14 07:50:26;;;;;;;0.00;0.00;;;;;;;;;;5058219;28;20212;-72
2023/07/14 07:52:52;;;;;;;0.10;0.10;;;;;;;;;;5091405;28;20229;-70
2023/07/14 07:55:19;;;;;;;0.00;0.00;;;;;;;;;;5056906;28;20237;-71
2023/07/14 07:57:47;;;;;;;0.08;0.08;;;;;;;;;;5093309;28;20204;-71
2023/07/14 08:00:15;;;;;;;0.00;0.00;;;;;;;;;;5054957;28;20302;-72
2023/07/14 08:02:43;;;;;;;0.10;0.10;;;;;;;;;;5094798;28;20488;-73
2023/07/14 08:05:11;;;;;;;0.00;0.00;;;;;;;;;;5054364;28;20282;-72
2023/07/14 08:07:37;;;;;;;0.00;0.00;;;;;;;;;;5095316;28;20507;-69
2023/07/14 08:10:05;;;;;;;0.10;0.10;;;;;;;;;;5064178;28;20237;-72
2023/07/14 08:12:31;;;;;;;0.10;0.10;;;;;;;;;;5086176;28;20299;-69
2023/07/14 08:14:57;;;;;;;0.00;0.00;;;;;;;;;;5063838;28;20265;-73
2023/07/14 08:17:24;;;;;;;0.00;0.00;;;;;;;;;;5085947;28;20267;-73
2023/07/14 08:19:53;;;;;;;0.10;0.10;;;;;;;;;;5063928;28;20215;-72
2023/07/14 08:22:19;;;;;;;0.10;0.10;;;;;;;;;;5086029;28;20242;-71
2023/07/14 08:24:46;;;;;;;0.10;0.10;;;;;;;;;;5063703;28;20282;-70
2023/07/14 08:27:14;;;;;;;0.00;0.00;;;;;;;;;;5085759;28;20532;-71
2023/07/14 08:29:40;;;;;;;0.00;0.00;;;;;;;;;;5063814;28;20274;-70
2023/07/14 08:32:07;;;;;;;0.00;0.00;;;;;;;;;;5085323;28;20253;-70
2023/07/14 08:34:33;;;;;;;0.00;0.00;;;;;;;;;;5063759;28;20211;-70
2023/07/14 08:37:01;;;;;;;0.10;0.10;;;;;;;;;;5083356;28;20305;-71
2023/07/14 08:39:27;;;;;;;0.00;0.00;;;;;;;;;;5065259;28;20214;-72
2023/07/14 08:41:57;;;;;;;0.10;0.10;;;;;;;;;;5081737;28;20244;-71
2023/07/14 08:44:32;;;;;;;0.00;0.00;;;;;;;;;;5066400;28;20383;-71
2023/07/14 08:47:02;;;;;;;0.00;0.00;;;;;;;;;;5083073;28;20241;-73
2023/07/14 08:49:31;;;;;;;0.00;0.00;;;;;;;;;;5064964;28;20438;-71
2023/07/14 08:51:59;;;;;;;0.08;0.08;;;;;;;;;;5082672;28;20731;-71
2023/07/14 08:54:29;;;;;;;0.00;0.00;;;;;;;;;;5065548;28;20423;-71
2023/07/14 08:56:56;;;;;;;0.00;0.00;;;;;;;;;;5081897;28;20279;-71
2023/07/14 08:59:28;;;;;;;0.00;0.00;;;;;;;;;;5066706;28;20444;-71
2023/07/14 09:01:55;;;;;;;0.00;0.00;;;;;;;;;;5083220;28;20279;-71
2023/07/14 09:04:24;;;;;;;0.10;0.10;;;;;;;;;;5071391;28;20424;-71
2023/07/14 09:06:50;;;;;;;0.00;0.00;;;;;;;;;;5084305;28;20238;-71
2023/07/14 09:09:17;;;;;;;0.00;0.00;;;;;;;;;;5071780;28;20522;-71
2023/07/14 09:11:52;;;;;;;0.10;0.10;;;;;;;;;;5082547;28;20242;-71
2023/07/14 09:14:31;;;;;;;0.00;0.00;;;;;;;;;;5071574;28;20492;-71
2023/07/14 09:17:01;;;;;;;0.00;0.00;;;;;;;;;;5086022;28;20238;-71
2023/07/14 09:19:33;;;;;;;0.00;0.00;;;;;;;;;;5068831;28;20231;-72
2023/07/14 09:22:04;;;;;;;0.10;0.10;;;;;;;;;;5086340;28;20416;-71
2023/07/14 09:24:34;;;;;;;0.08;0.08;;;;;;;;;;5067959;28;20211;-71
2023/07/14 09:27:02;;;;;;;0.10;0.10;;;;;;;;;;5086802;28;20306;-71
2023/07/14 09:29:33;;;;;;;0.00;0.00;;;;;;;;;;5067891;28;20208;-71
2023/07/14 09:32:01;;;;;;;0.10;0.10;;;;;;;;;;5085882;28;20629;-71
2023/07/14 09:34:29;;;;;;;0.05;0.05;;;;;;;;;;5068664;28;20203;-71
2023/07/14 09:36:56;;;;;;;0.00;0.00;;;;;;;;;;5085216;28;20238;-71
2023/07/14 09:39:26;;;;;;;0.10;0.10;;;;;;;;;;5069624;28;20235;-71
2023/07/14 09:41:53;;;;;;;0.00;0.00;;;;;;;;;;5084350;28;20246;-71
2023/07/14 09:44:23;;;;;;;0.00;0.00;;;;;;;;;;5070015;28;20389;-71
2023/07/14 09:46:50;;;;;;;0.00;0.00;;;;;;;;;;5083212;28;20254;-71
2023/07/14 09:49:25;;;;;;;0.10;0.10;;;;;;;;;;5071063;28;20204;-71
2023/07/14 09:52:02;;;;;;;0.03;0.03;;;;;;;;;;5083871;28;20501;-71
2023/07/14 09:54:28;;;;;;;0.00;0.00;;;;;;;;;;5067527;28;20215;-71
2023/07/14 09:57:00;;;;;;;0.10;0.10;;;;;;;;;;5084586;28;20261;-71
2023/07/14 09:59:28;;;;;;;0.05;0.05;;;;;;;;;;5067994;28;20291;-71
2023/07/14 10:01:56;;;;;;;0.00;0.00;;;;;;;;;;5084433;28;20262;-71
2023/07/14 10:04:27;;;;;;;0.00;0.00;;;;;;;;;;5068969;28;20236;-72
2023/07/14 10:06:54;;;;;;;0.10;0.10;;;;;;;;;;5083890;28;20240;-73
2023/07/14 10:09:23;;;;;;;0.08;0.08;;;;;;;;;;5069596;28;20203;-73
2023/07/14 10:11:50;;;;;;;0.00;0.00;;;;;;;;;;5082715;28;20239;-72
2023/07/14 10:14:25;;;;;;;0.00;0.00;;;;;;;;;;5070754;28;20432;-72
2023/07/14 10:16:53;;;;;;;0.03;0.03;;;;;;;;;;5083138;28;20234;-72
2023/07/14 10:19:20;;;;;;;0.10;0.10;;;;;;;;;;5069919;28;20214;-72
2023/07/14 10:21:51;;;;;;;0.00;0.00;;;;;;;;;;5082094;28;20239;-73
2023/07/14 10:24:19;;;;;;;0.10;0.10;;;;;;;;;;5070253;28;20250;-73
2023/07/14 10:26:50;;;;;;;0.30;0.30;;;;;;;;;;5081447;28;20234;-73
2023/07/14 10:29:18;;;;;;;0.00;0.00;;;;;;;;;;5070477;28;20239;-72
2023/07/14 10:31:47;;;;;;;0.00;0.00;;;;;;;;;;5080932;28;20313;-73
2023/07/14 10:34:23;;;;;;;0.00;0.00;;;;;;;;;;5071079;28;20211;-73
2023/07/14 10:36:52;;;;;;;0.00;0.00;;;;;;;;;;5082587;28;20242;-72
2023/07/14 10:39:23;;;;;;;0.00;0.00;;;;;;;;;;5069282;28;20236;-73
2023/07/14 10:41:50;;;;;;;0.10;0.10;;;;;;;;;;5082383;28;20306;-73
2023/07/14 10:44:19;;;;;;;0.00;0.00;;;;;;;;;;5069925;28;20271;-73
2023/07/14 10:46:48;;;;;;;0.10;0.10;;;;;;;;;;5081122;28;20578;-73
2023/07/14 10:49:22;;;;;;;0.00;0.00;;;;;;;;;;5070636;28;20387;-73
2023/07/14 10:51:52;;;;;;;0.00;0.00;;;;;;;;;;5081876;28;20276;-73
2023/07/14 10:54:21;;;;;;;0.00;0.00;;;;;;;;;;5069504;28;20279;-73
2023/07/14 10:56:49;;;;;;;0.00;0.00;;;;;;;;;;5081543;28;20288;-74
2023/07/14 10:59:20;;;;;;;0.00;0.00;;;;;;;;;;5069948;28;20504;-74
2023/07/14 11:01:52;;;;;;;0.00;0.00;;;;;;;;;;5081114;28;20301;-73
2023/07/14 11:04:22;;;;;;;0.00;0.00;;;;;;;;;;5069086;28;20231;-73
2023/07/14 11:06:51;;;;;;;0.00;0.00;;;;;;;;;;5081763;28;20235;-74
2023/07/14 11:09:19;;;;;;;0.00;0.00;;;;;;;;;;5069182;28;20253;-76
2023/07/14 11:11:49;;;;;;;0.00;0.00;;;;;;;;;;5080813;28;20485;-74
2023/07/14 11:14:20;;;;;;;0.00;0.00;;;;;;;;;;5069391;28;20204;-75
2023/07/14 11:16:51;;;;;;;0.00;0.00;;;;;;;;;;5080878;28;20297;-75
2023/07/14 11:19:21;;;;;;;0.00;0.00;;;;;;;;;;5068792;28;20211;-74
2023/07/14 11:21:53;;;;;;;0.00;0.00;;;;;;;;;;5081284;28;20300;-74
2023/07/14 11:24:22;;;;;;;0.00;0.00;;;;;;;;;;5067778;28;20204;-74
2023/07/14 11:27:09;;;;;;;2.80;0.90;;;;;;;;;;5081402;28;20263;-75
2023/07/14 11:29:39;;;;;;;0.00;0.00;;;;;;;;;;5059501;28;20210;-74
2023/07/14 11:32:16;;;;;;;0.00;0.00;;;;;;;;;;5086177;28;20321;-74
2023/07/14 11:34:48;;;;;;;0.00;0.00;;;;;;;;;;5064432;28;20211;-74
2023/07/14 11:37:24;;;;;;;0.00;0.00;;;;;;;;;;5086382;28;20277;-74
2023/07/14 11:39:53;;;;;;;0.08;0.08;;;;;;;;;;5064502;28;20427;-74
2023/07/14 11:42:21;;;;;;;0.10;0.10;;;;;;;;;;5086208;28;20639;-74
2023/07/14 11:44:48;;;;;;;0.00;0.00;;;;;;;;;;5064415;28;20515;-74
2023/07/14 11:47:18;;;;;;;0.00;0.00;;;;;;;;;;5086238;28;20241;-74
2023/07/14 11:49:44;;;;;;;0.00;0.00;;;;;;;;;;5064315;28;20235;-74
2023/07/14 11:52:12;;;;;;;0.00;0.00;;;;;;;;;;5086218;28;20252;-74
2023/07/14 11:54:42;;;;;;;0.00;0.00;;;;;;;;;;5064329;28;20236;-75
2023/07/14 11:57:15;;;;;;;0.00;0.00;;;;;;;;;;5086037;28;20253;-74
2023/07/14 11:59:52;;;;;;;0.00;0.00;;;;;;;;;;5064209;28;20208;-75
2023/07/14 12:02:29;;;;;;;0.00;0.00;;;;;;;;;;5086138;28;20445;-75
2023/07/14 12:04:59;;;;;;;0.10;0.10;;;;;;;;;;5063801;28;20566;-74
2023/07/14 12:07:25;;;;;;;0.00;0.00;;;;;;;;;;5085932;28;20280;-74
2023/07/14 12:10:10;;;;;;;0.00;0.00;;;;;;;;;;5064055;28;20240;-74
2023/07/14 12:12:38;;;;;;;0.10;0.10;;;;;;;;;;5052351;28;20283;-75
2023/07/14 12:15:35;;;;;;;0.00;0.00;;;;;;;;;;5063878;28;20208;-74
2023/07/14 12:21:27;;;;;;;0.00;0.00;;;;;;;;;;5065834;28;20242;-75
2023/07/14 12:23:54;;;;;;;0.00;0.00;;;;;;;;;;5038561;28;20242;-75
2023/07/14 12:26:29;;;;;;;0.00;0.00;;;;;;;;;;5072871;28;20235;-75
2023/07/14 12:28:57;;;;;;;0.00;0.00;;;;;;;;;;5074058;28;20404;-74
2023/07/14 12:31:23;;;;;;;0.00;0.00;;;;;;;;;;5073646;28;20304;-74
2023/07/14 12:33:50;;;;;;;0.00;0.00;;;;;;;;;;5075336;28;20231;-74
2023/07/14 12:36:18;;;;;;;0.00;0.00;;;;;;;;;;5073056;28;20304;-74
2023/07/14 12:38:45;;;;;;;0.00;0.00;;;;;;;;;;5080971;28;20419;-75
2023/07/14 12:41:12;;;;;;;0.00;0.00;;;;;;;;;;5074330;28;20242;-74
2023/07/14 12:43:41;;;;;;;0.00;0.00;;;;;;;;;;5082654;28;20204;-75
2023/07/14 12:46:12;;;;;;;0.00;0.00;;;;;;;;;;5073251;28;20293;-75
2023/07/14 12:48:39;;;;;;;0.00;0.00;;;;;;;;;;5082328;28;20196;-74
2023/07/14 12:51:12;;;;;;;0.00;0.00;;;;;;;;;;5072819;28;20492;-74
2023/07/14 12:53:40;;;;;;;0.05;0.05;;;;;;;;;;5082821;28;20226;-74
2023/07/14 12:56:11;;;;;;;0.00;0.00;;;;;;;;;;5072711;28;20238;-74
2023/07/14 12:58:37;;;;;;;0.00;0.00;;;;;;;;;;5082341;28;20204;-74
2023/07/14 13:01:04;;;;;;;0.00;0.00;;;;;;;;;;5071981;28;20257;-75
2023/07/14 13:03:35;;;;;;;0.00;0.00;;;;;;;;;;5084336;28;20204;-74
2023/07/14 13:06:02;;;;;;;0.00;0.00;;;;;;;;;;5071510;28;20482;-74
2023/07/14 13:08:29;;;;;;;0.00;0.00;;;;;;;;;;5084665;28;20201;-74
2023/07/14 13:10:55;;;;;;;0.00;0.00;;;;;;;;;;5069595;28;20238;-75
2023/07/14 13:13:25;;;;;;;0.00;0.00;;;;;;;;;;5085998;28;20199;-75
2023/07/14 13:15:52;;;;;;;0.00;0.00;;;;;;;;;;5068337;28;20245;-75
2023/07/14 13:18:22;;;;;;;0.00;0.00;;;;;;;;;;5087216;28;20228;-74
2023/07/14 13:20:50;;;;;;;0.00;0.00;;;;;;;;;;5067724;28;20450;-74
2023/07/14 13:23:19;;;;;;;0.00;0.00;;;;;;;;;;5087972;28;20275;-74
2023/07/14 13:25:51;;;;;;;0.00;0.00;;;;;;;;;;5066281;28;20242;-75
2023/07/14 13:28:17;;;;;;;0.00;0.00;;;;;;;;;;5087577;28;20379;-74
2023/07/14 13:30:45;;;;;;;0.00;0.00;;;;;;;;;;5066114;28;20551;-75
2023/07/14 13:33:15;;;;;;;0.00;0.00;;;;;;;;;;5088928;28;20204;-74
2023/07/14 13:35:53;;;;;;;0.15;0.15;;;;;;;;;;5065340;28;20253;-73
2023/07/14 13:38:21;;;;;;;0.10;0.10;;;;;;;;;;5086566;28;20415;-73
2023/07/14 13:40:51;;;;;;;0.00;0.00;;;;;;;;;;5066527;28;20238;-74
2023/07/14 13:43:20;;;;;;;0.00;0.00;;;;;;;;;;5087455;28;20441;-74
2023/07/14 13:45:56;;;;;;;0.00;0.00;;;;;;;;;;5066300;28;20566;-74
2023/07/14 13:48:24;;;;;;;0.00;0.00;;;;;;;;;;5085609;28;20391;-74
2023/07/14 13:50:50;;;;;;;0.00;0.00;;;;;;;;;;5067061;28;20238;-75
2023/07/14 13:53:16;;;;;;;0.00;0.00;;;;;;;;;;5087215;28;20261;-74
2023/07/14 13:55:44;;;;;;;0.00;0.00;;;;;;;;;;5065416;28;20238;-74
2023/07/14 13:58:12;;;;;;;0.00;0.00;;;;;;;;;;5088862;28;20269;-75
2023/07/14 14:00:38;;;;;;;0.00;0.00;;;;;;;;;;5063922;28;20238;-74
2023/07/14 14:03:06;;;;;;;0.00;0.00;;;;;;;;;;5090248;28;20275;-74
2023/07/14 14:05:36;;;;;;;0.00;0.00;;;;;;;;;;5062315;28;20238;-74
2023/07/14 14:08:05;;;;;;;0.00;0.00;;;;;;;;;;5090625;28;20212;-74
2023/07/14 14:10:32;;;;;;;0.00;0.00;;;;;;;;;;5062046;28;20242;-74
2023/07/14 14:13:00;;;;;;;0.00;0.00;;;;;;;;;;5091579;28;20242;-74
2023/07/14 14:15:28;;;;;;;0.00;0.00;;;;;;;;;;5060374;28;20264;-75
2023/07/14 14:17:57;;;;;;;0.00;0.00;;;;;;;;;;5092708;28;20298;-75
2023/07/14 14:20:25;;;;;;;0.00;0.00;;;;;;;;;;5059762;28;20379;-74
2023/07/14 14:22:52;;;;;;;0.00;0.00;;;;;;;;;;5093197;28;20219;-74
2023/07/14 14:25:20;;;;;;;0.00;0.00;;;;;;;;;;5058180;28;20222;-75
2023/07/14 14:27:47;;;;;;;0.00;0.00;;;;;;;;;;5094645;28;20547;-74
2023/07/14 14:30:15;;;;;;;0.05;0.05;;;;;;;;;;5056552;28;20204;-74
2023/07/14 14:32:41;;;;;;;0.00;0.00;;;;;;;;;;5096145;28;20208;-74
2023/07/14 14:35:21;;;;;;;0.00;0.00;;;;;;;;;;5065462;28;20233;-74
2023/07/14 14:37:48;;;;;;;0.00;0.00;;;;;;;;;;5065280;28;20271;-74
2023/07/14 14:40:15;;;;;;;0.00;0.00;;;;;;;;;;5056582;28;20226;-74
2023/07/14 14:42:41;;;;;;;0.00;0.00;;;;;;;;;;5095448;28;20216;-74
2023/07/14 14:45:11;;;;;;;0.00;0.00;;;;;;;;;;5065323;28;20270;-73
2023/07/14 14:47:39;;;;;;;0.00;0.00;;;;;;;;;;5053880;28;20438;-75
2023/07/14 14:50:06;;;;;;;0.00;0.00;;;;;;;;;;5065280;28;20238;-74
2023/07/14 14:52:32;;;;;;;0.00;0.00;;;;;;;;;;5087059;28;20259;-73